Time;durP1;ratioP1;P1;durP2;ratioP2;P2;SDS_P1;SDS_P2;PMS_P1;PMS_P2;Temp;Humidity;BMP_temperature;BMP_pressure;BME280_temperature;BME280_humidity;BME280_pressure;Samples;Min_cycle;Max_cycle;Signal;HPM_P1;HPM_P2
2023/05/17 00:01:12;;;;;;;21.60;3.10;;;16.60;99.90;;;;;;5093033;28;20051;-72
2023/05/17 00:04:16;;;;;;;15.52;2.80;;;16.60;99.90;;;;;;5092237;28;20051;-72
2023/05/17 00:07:19;;;;;;;11.00;2.45;;;16.60;99.90;;;;;;5093027;28;20039;-72
2023/05/17 00:10:23;;;;;;;22.92;2.60;;;16.60;99.90;;;;;;5092739;28;20051;-72
2023/05/17 00:13:27;;;;;;;16.08;2.80;;;16.60;99.90;;;;;;5092986;28;20039;-71
2023/05/17 00:16:32;;;;;;;11.70;2.58;;;16.60;99.90;;;;;;5092727;28;20051;-72
2023/05/17 00:19:35;;;;;;;14.18;2.00;;;16.60;99.90;;;;;;5092706;28;20197;-71
2023/05/17 00:22:39;;;;;;;19.42;2.17;;;16.60;99.90;;;;;;5092993;28;20051;-72
2023/05/17 00:25:43;;;;;;;12.13;1.75;;;16.60;99.90;;;;;;5092653;28;20043;-72
2023/05/17 00:28:47;;;;;;;16.45;2.03;;;16.70;99.90;;;;;;5092452;28;20055;-72
2023/05/17 00:31:52;;;;;;;8.55;1.95;;;16.60;99.90;;;;;;5090881;28;20066;-72
2023/05/17 00:34:55;;;;;;;16.85;2.22;;;16.60;99.90;;;;;;5092470;28;20043;-72
2023/05/17 00:38:00;;;;;;;17.70;1.70;;;16.60;99.90;;;;;;5079989;28;20043;-72
2023/05/17 00:41:04;;;;;;;11.48;1.75;;;16.60;99.90;;;;;;5091658;28;20043;-72
2023/05/17 00:44:08;;;;;;;12.50;1.70;;;16.60;99.90;;;;;;5091361;28;20516;-72
2023/05/17 00:47:12;;;;;;;11.13;1.40;;;19.50;99.90;;;;;;5092492;28;20388;-72
2023/05/17 00:50:16;;;;;;;7.07;1.30;;;16.60;99.90;;;;;;5091269;28;20439;-72
2023/05/17 00:53:22;;;;;;;8.43;1.77;;;16.60;99.90;;;;;;5092452;28;20046;-71
2023/05/17 00:56:26;;;;;;;12.52;1.50;;;16.60;99.90;;;;;;5092035;28;20511;-71
2023/05/17 00:59:32;;;;;;;17.40;1.77;;;16.60;99.90;;;;;;5091522;28;20043;-71
2023/05/17 01:02:36;;;;;;;18.85;1.50;;;16.60;99.90;;;;;;5091807;28;20047;-72
2023/05/17 01:05:40;;;;;;;11.02;1.88;;;16.60;99.90;;;;;;5091990;28;20035;-72
2023/05/17 01:08:44;;;;;;;9.00;1.73;;;16.60;99.90;;;;;;5091889;28;20051;-72
2023/05/17 01:12:02;;;;;;;12.50;1.40;;;16.60;99.90;;;;;;5091563;28;20415;-72
2023/05/17 01:15:06;;;;;;;16.10;4.13;;;16.60;99.90;;;;;;5090782;28;20039;-72
2023/05/17 01:18:27;;;;;;;13.20;1.73;;;16.60;99.90;;;;;;5091875;28;20101;-71
2023/05/17 01:22:02;;;;;;;10.45;1.60;;;16.70;99.90;;;;;;5091785;28;20400;-71
2023/05/17 01:25:27;;;;;;;14.15;2.03;;;16.60;99.90;;;;;;5090716;28;20503;-71
2023/05/17 01:28:32;;;;;;;9.65;1.80;;;16.60;99.90;;;;;;5091280;28;20403;-71
2023/05/17 01:31:38;;;;;;;8.60;1.40;;;16.60;99.90;;;;;;5090525;28;20051;-71
2023/05/17 01:34:42;;;;;;;12.52;1.77;;;16.60;99.90;;;;;;5090306;28;20059;-72
2023/05/17 01:37:46;;;;;;;18.08;2.30;;;16.60;99.90;;;;;;5091560;28;20043;-72
2023/05/17 01:41:20;;;;;;;8.40;1.90;;;16.60;99.90;;;;;;5090766;28;20047;-72
2023/05/17 01:44:47;;;;;;;11.25;2.00;;;16.60;99.90;;;;;;5091260;28;20419;-72
2023/05/17 01:48:22;;;;;;;13.00;1.90;;;16.60;99.90;;;;;;5090661;28;20063;-72
2023/05/17 01:51:32;;;;;;;11.30;1.75;;;16.60;99.90;;;;;;5090217;28;20055;-71
2023/05/17 01:54:40;;;;;;;21.00;3.28;;;16.60;99.90;;;;;;5090440;28;20050;-72
2023/05/17 01:57:46;;;;;;;13.32;2.63;;;16.60;99.90;;;;;;5091131;28;20047;-72
2023/05/17 02:00:54;;;;;;;22.55;2.50;;;16.60;99.90;;;;;;5090092;28;20039;-72
2023/05/17 02:03:58;;;;;;;18.38;2.40;;;16.60;99.90;;;;;;5090229;28;20035;-72
2023/05/17 02:07:02;;;;;;;20.77;2.20;;;16.50;99.90;;;;;;5090014;28;20503;-72
2023/05/17 02:10:07;;;;;;;17.38;1.98;;;16.60;99.90;;;;;;5090971;28;20054;-72
2023/05/17 02:13:11;;;;;;;14.50;2.38;;;16.60;99.90;;;;;;5091307;28;20043;-72
2023/05/17 02:16:15;;;;;;;19.02;2.28;;;16.50;99.90;;;;;;5090638;28;20043;-72
2023/05/17 02:19:19;;;;;;;11.27;1.75;;;16.40;99.90;;;;;;5090423;28;20043;-72
2023/05/17 02:22:23;;;;;;;9.13;1.58;;;16.40;99.90;;;;;;5091066;28;20051;-72
2023/05/17 02:25:27;;;;;;;12.25;1.83;;;16.50;99.90;;;;;;5090643;28;20644;-72
2023/05/17 02:28:31;;;;;;;15.90;2.38;;;16.50;99.90;;;;;;5078321;28;20051;-72
2023/05/17 02:31:35;;;;;;;13.27;1.70;;;16.40;99.90;;;;;;5090652;28;20055;-72
2023/05/17 02:34:39;;;;;;;10.55;1.60;;;16.40;99.90;;;;;;5090952;28;20043;-72
2023/05/17 02:37:43;;;;;;;12.85;2.22;;;16.50;99.90;;;;;;5090904;28;20503;-72
2023/05/17 02:40:49;;;;;;;8.20;1.42;;;16.40;99.90;;;;;;5090097;28;20039;-72
2023/05/17 02:43:53;;;;;;;10.90;2.47;;;16.50;99.90;;;;;;5090162;28;20506;-72
2023/05/17 02:46:57;;;;;;;8.63;1.65;;;16.50;99.90;;;;;;5078222;28;20043;-72
2023/05/17 02:50:00;;;;;;;5.60;1.40;;;16.40;99.90;;;;;;5090564;28;20043;-72
2023/05/17 02:53:04;;;;;;;8.15;1.45;;;16.40;99.90;;;;;;5089853;28;20051;-71
2023/05/17 02:56:09;;;;;;;7.25;1.63;;;16.40;99.90;;;;;;5093350;28;20047;-72
2023/05/17 02:59:13;;;;;;;5.72;1.52;;;16.40;99.90;;;;;;5093507;28;20046;-72
2023/05/17 03:02:19;;;;;;;10.90;1.52;;;16.40;99.90;;;;;;5093625;28;20039;-72
2023/05/17 03:05:23;;;;;;;8.15;1.52;;;16.30;99.90;;;;;;5094120;28;20051;-72
2023/05/17 03:08:29;;;;;;;7.05;1.70;;;16.30;99.90;;;;;;5093511;28;20047;-71
2023/05/17 03:11:34;;;;;;;8.73;2.05;;;16.20;99.90;;;;;;5093256;28;20442;-72
2023/05/17 03:14:41;;;;;;;12.90;1.90;;;16.20;99.90;;;;;;5093387;28;20388;-72
2023/05/17 03:17:46;;;;;;;14.43;2.30;;;16.30;99.90;;;;;;5093504;28;20047;-72
2023/05/17 03:20:53;;;;;;;20.08;2.85;;;16.30;99.90;;;;;;5093327;28;20050;-72
2023/05/17 03:23:57;;;;;;;14.02;2.38;;;16.30;99.90;;;;;;5093075;28;20059;-72
2023/05/17 03:27:01;;;;;;;12.02;2.10;;;16.20;99.90;;;;;;5093112;28;20510;-71
2023/05/17 03:30:05;;;;;;;11.10;2.72;;;16.20;99.90;;;;;;5093841;28;20055;-72
2023/05/17 03:33:13;;;;;;;11.48;2.95;;;16.20;99.90;;;;;;5093163;28;20055;-71
2023/05/17 03:36:17;;;;;;;9.35;3.58;;;16.10;99.90;;;;;;5093086;28;20043;-71
2023/05/17 03:39:21;;;;;;;17.00;2.60;;;16.20;99.90;;;;;;5093879;28;20507;-72
2023/05/17 03:42:25;;;;;;;14.43;2.92;;;16.20;99.90;;;;;;5094256;28;20514;-71
2023/05/17 03:45:29;;;;;;;19.17;3.15;;;16.30;99.90;;;;;;5092970;28;20051;-72
2023/05/17 03:48:33;;;;;;;9.88;3.00;;;16.30;99.90;;;;;;5092933;28;20395;-72
2023/05/17 03:51:37;;;;;;;8.18;1.88;;;16.30;99.90;;;;;;5092834;28;20514;-71
2023/05/17 03:54:41;;;;;;;11.45;1.90;;;;;;;;;;5093243;28;20044;-71
2023/05/17 03:57:44;;;;;;;8.75;1.70;;;16.40;99.90;;;;;;5092999;28;20043;-71
2023/05/17 04:00:48;;;;;;;10.20;1.75;;;16.40;99.90;;;;;;5093322;28;20031;-71
2023/05/17 04:03:55;;;;;;;8.43;2.65;;;16.40;99.90;;;;;;5092371;28;20047;-72
2023/05/17 04:07:00;;;;;;;11.30;2.22;;;16.40;99.90;;;;;;5091237;28;20047;-70
2023/05/17 04:10:05;;;;;;;6.60;1.98;;;16.50;99.90;;;;;;5092039;28;20043;-72
2023/05/17 04:13:08;;;;;;;12.32;2.22;;;16.50;99.90;;;;;;5092221;28;20047;-71
2023/05/17 04:16:14;;;;;;;9.63;1.90;;;16.50;99.90;;;;;;5092269;28;20039;-71
2023/05/17 04:19:19;;;;;;;7.63;1.80;;;16.60;99.90;;;;;;5092144;28;20050;-72
2023/05/17 04:22:23;;;;;;;9.27;2.47;;;16.60;99.90;;;;;;5091937;28;20043;-72
2023/05/17 04:25:27;;;;;;;16.05;2.97;;;16.60;99.90;;;;;;5091776;28;20399;-72
2023/05/17 04:28:33;;;;;;;15.30;2.80;;;16.60;99.90;;;;;;5091517;28;20051;-72
2023/05/17 04:31:38;;;;;;;13.77;2.50;;;16.60;99.90;;;;;;5091702;28;20420;-72
2023/05/17 04:34:42;;;;;;;13.35;2.22;;;16.60;99.90;;;;;;5091693;28;20051;-71
2023/05/17 04:37:46;;;;;;;9.52;2.28;;;16.70;99.90;;;;;;5092728;28;20047;-72
2023/05/17 04:41:04;;;;;;;8.35;2.90;;;16.70;99.90;;;;;;5091923;28;20047;-71
2023/05/17 04:44:10;;;;;;;18.13;5.10;;;16.70;99.90;;;;;;5091473;28;20404;-71
2023/05/17 04:47:14;;;;;;;13.90;2.88;;;16.70;99.90;;;;;;5091514;28;20039;-72
2023/05/17 04:50:19;;;;;;;18.52;2.25;;;16.70;99.90;;;;;;5091196;28;20059;-72
2023/05/17 04:53:23;;;;;;;11.10;2.53;;;16.70;99.90;;;;;;5091631;28;20055;-72
2023/05/17 04:56:28;;;;;;;12.65;2.70;;;16.70;99.90;;;;;;5091238;28;20498;-72
2023/05/17 04:59:33;;;;;;;8.00;2.35;;;16.80;99.90;;;;;;5091614;28;20510;-72
2023/05/17 05:02:37;;;;;;;9.65;2.28;;;16.80;99.90;;;;;;5091028;28;20061;-71
2023/05/17 05:05:42;;;;;;;10.30;2.03;;;16.80;99.90;;;;;;5090977;28;20054;-72
2023/05/17 05:08:47;;;;;;;9.75;2.40;;;16.80;99.90;;;;;;5091189;28;20039;-71
2023/05/17 05:11:52;;;;;;;11.63;2.40;;;16.90;99.90;;;;;;5090758;28;20059;-71
2023/05/17 05:14:55;;;;;;;11.23;3.65;;;16.90;99.90;;;;;;5091079;28;20050;-71
2023/05/17 05:17:59;;;;;;;13.85;4.20;;;16.90;99.90;;;;;;5078690;28;20042;-70
2023/05/17 05:21:04;;;;;;;10.68;3.10;;;16.90;99.90;;;;;;5090922;28;20035;-63
2023/05/17 05:24:08;;;;;;;14.95;3.15;;;16.90;99.90;;;;;;5079262;28;20051;-64
2023/05/17 05:27:12;;;;;;;8.40;2.88;;;17.00;99.90;;;;;;5090588;28;20530;-63
2023/05/17 05:30:20;;;;;;;7.88;2.90;;;17.00;99.90;;;;;;5090441;28;20063;-63
2023/05/17 05:33:27;;;;;;;10.32;3.20;;;17.00;99.90;;;;;;5090821;28;20047;-64
2023/05/17 05:36:31;;;;;;;11.48;3.72;;;17.10;99.90;;;;;;5090663;28;20491;-64
2023/05/17 05:39:36;;;;;;;10.35;3.63;;;17.00;99.90;;;;;;5090536;28;20050;-63
2023/05/17 05:42:40;;;;;;;7.50;2.72;;;17.10;99.90;;;;;;5090475;28;20039;-63
2023/05/17 05:45:47;;;;;;;15.50;3.00;;;17.10;99.90;;;;;;5090478;28;20051;-63
2023/05/17 05:48:51;;;;;;;16.02;3.60;;;17.10;99.90;;;;;;5090537;28;20047;-63
2023/05/17 05:51:55;;;;;;;5.53;2.90;;;17.10;99.90;;;;;;5090125;28;20517;-64
2023/05/17 05:55:01;;;;;;;10.35;2.70;;;17.10;99.90;;;;;;5090086;28;20043;-63
2023/05/17 05:58:06;;;;;;;8.70;2.58;;;17.10;99.90;;;;;;5090047;28;20047;-62
2023/05/17 06:01:10;;;;;;;15.18;3.75;;;17.10;99.90;;;;;;5090163;28;20047;-63
2023/05/17 06:04:14;;;;;;;8.68;2.85;;;17.10;99.90;;;;;;5090750;28;20051;-63
2023/05/17 06:07:18;;;;;;;9.63;3.08;;;17.10;99.90;;;;;;5091178;28;20403;-63
2023/05/17 06:10:23;;;;;;;12.38;2.75;;;17.20;99.90;;;;;;5090923;28;20043;-63
2023/05/17 06:13:27;;;;;;;6.72;2.58;;;17.20;99.90;;;;;;5090884;28;20051;-63
2023/05/17 06:16:31;;;;;;;11.82;2.70;;;17.20;99.90;;;;;;5090791;28;20047;-63
2023/05/17 06:19:35;;;;;;;10.93;2.90;;;17.20;99.90;;;;;;5090597;28;20051;-63
2023/05/17 06:22:39;;;;;;;9.73;2.50;;;17.30;99.90;;;;;;5090440;28;20039;-63
2023/05/17 06:25:43;;;;;;;5.25;2.38;;;17.30;99.90;;;;;;5090618;28;20055;-64
2023/05/17 06:28:47;;;;;;;6.68;2.53;;;17.30;99.90;;;;;;5090380;28;20070;-63
2023/05/17 06:31:50;;;;;;;10.52;2.60;;;17.30;99.90;;;;;;5094722;28;20059;-63
2023/05/17 06:34:55;;;;;;;14.07;3.33;;;17.30;99.90;;;;;;5094993;28;20391;-63
2023/05/17 06:37:59;;;;;;;9.55;2.75;;;17.30;99.90;;;;;;5094570;28;20051;-63
2023/05/17 06:41:03;;;;;;;12.90;2.63;;;17.30;99.90;;;;;;5095011;28;20047;-63
2023/05/17 06:44:07;;;;;;;11.15;3.15;;;17.30;99.90;;;;;;5094519;28;20039;-62
2023/05/17 06:47:11;;;;;;;11.35;3.10;;;17.30;99.90;;;;;;5094562;28;20043;-63
2023/05/17 06:50:15;;;;;;;11.45;2.60;;;17.20;99.90;;;;;;5094374;28;20043;-62
2023/05/17 06:53:19;;;;;;;9.90;3.13;;;17.30;99.90;;;;;;5094563;28;20411;-63
2023/05/17 06:56:24;;;;;;;8.02;2.58;;;17.20;99.90;;;;;;5094497;28;20051;-63
2023/05/17 06:59:28;;;;;;;8.95;3.08;;;17.10;99.90;;;;;;5094570;28;20513;-63
2023/05/17 07:02:32;;;;;;;13.05;3.25;;;17.10;99.90;;;;;;5094192;28;20060;-63
2023/05/17 07:05:36;;;;;;;10.32;3.10;;;17.10;99.90;;;;;;5094010;28;20063;-63
2023/05/17 07:08:40;;;;;;;14.82;3.83;;;17.00;99.90;;;;;;5094407;28;20039;-62
2023/05/17 07:11:43;;;;;;;13.30;4.07;;;16.90;99.90;;;;;;5093723;28;20059;-63
2023/05/17 07:14:47;;;;;;;9.18;2.80;;;16.90;99.90;;;;;;5094084;28;20071;-63
2023/05/17 07:17:51;;;;;;;14.18;2.95;;;17.10;99.90;;;;;;5093976;28;20118;-64
2023/05/17 07:20:55;;;;;;;15.88;3.70;;;17.10;99.90;;;;;;5094129;28;20056;-63
2023/05/17 07:23:59;;;;;;;11.25;3.67;;;17.20;99.90;;;;;;5093653;28;20043;-62
2023/05/17 07:27:03;;;;;;;15.63;4.15;;;17.30;99.90;;;;;;5093564;28;20055;-63
2023/05/17 07:30:07;;;;;;;18.58;4.82;;;17.30;99.90;;;;;;5093813;28;20051;-63
2023/05/17 07:33:12;;;;;;;13.98;4.90;;;17.40;99.90;;;;;;5093646;28;20510;-64
2023/05/17 07:36:16;;;;;;;15.10;3.85;;;17.50;99.90;;;;;;5093596;28;20043;-63
2023/05/17 07:39:20;;;;;;;11.52;3.97;;;17.50;99.90;;;;;;5092519;28;20047;-63
2023/05/17 07:42:23;;;;;;;11.20;4.45;;;17.60;99.90;;;;;;5093677;28;20039;-64
2023/05/17 07:45:27;;;;;;;19.83;3.53;;;17.70;99.90;;;;;;5093320;28;20035;-64
2023/05/17 07:48:31;;;;;;;14.23;3.53;;;17.80;99.90;;;;;;5093229;28;20122;-63
2023/05/17 07:51:35;;;;;;;13.93;3.20;;;17.80;99.90;;;;;;5093190;28;20092;-63
2023/05/17 07:54:39;;;;;;;12.07;3.50;;;17.90;99.90;;;;;;5093105;28;20055;-62
2023/05/17 07:57:44;;;;;;;9.38;2.72;;;18.00;99.90;;;;;;5093160;28;20047;-63
2023/05/17 08:00:48;;;;;;;8.48;2.40;;;18.00;99.90;;;;;;5093110;28;20046;-63
2023/05/17 08:03:51;;;;;;;6.47;1.77;;;18.10;99.90;;;;;;5093236;28;20047;-62
2023/05/17 08:06:55;;;;;;;7.25;1.65;;;18.10;99.90;;;;;;5093316;28;20043;-64
2023/05/17 08:09:59;;;;;;;8.38;2.08;;;18.10;99.90;;;;;;5093051;28;20396;-62
2023/05/17 08:13:05;;;;;;;7.00;1.55;;;18.10;99.90;;;;;;5093078;28;20063;-63
2023/05/17 08:16:08;;;;;;;7.13;1.48;;;18.10;99.90;;;;;;5092367;28;20063;-63
2023/05/17 08:19:14;;;;;;;8.13;1.45;;;18.00;99.90;;;;;;5092882;28;20047;-63
2023/05/17 08:22:18;;;;;;;12.43;1.70;;;18.10;99.90;;;;;;5092681;28;20039;-63
2023/05/17 08:25:22;;;;;;;6.60;1.05;;;18.00;99.90;;;;;;5092577;28;20353;-63
2023/05/17 08:28:27;;;;;;;7.80;1.10;;;18.00;99.90;;;;;;5092472;28;20047;-63
2023/05/17 08:31:31;;;;;;;8.02;1.45;;;18.00;99.90;;;;;;5092576;28;20075;-63
2023/05/17 08:34:35;;;;;;;7.32;1.73;;;18.10;99.90;;;;;;5091601;28;20039;-63
2023/05/17 08:37:39;;;;;;;4.82;1.30;;;18.10;99.90;;;;;;5092529;28;20522;-63
2023/05/17 08:40:43;;;;;;;8.52;1.92;;;18.10;99.90;;;;;;5092395;28;20043;-63
2023/05/17 08:43:51;;;;;;;7.03;1.50;;;18.10;99.90;;;;;;5091644;28;20047;-63
2023/05/17 08:46:58;;;;;;;7.93;1.30;;;18.20;99.90;;;;;;5092495;28;20051;-63
2023/05/17 08:50:04;;;;;;;6.88;1.55;;;18.10;99.90;;;;;;5092702;28;20051;-63
2023/05/17 08:53:09;;;;;;;6.97;1.50;;;18.10;99.90;;;;;;5091334;28;20059;-63
2023/05/17 08:56:15;;;;;;;8.18;1.63;;;18.10;99.90;;;;;;5092452;28;20047;-63
2023/05/17 08:59:19;;;;;;;6.60;1.67;;;17.90;99.90;;;;;;5092211;28;20047;-64
2023/05/17 09:02:24;;;;;;;5.07;1.45;;;18.00;99.90;;;;;;5091959;28;20047;-63
2023/05/17 09:05:29;;;;;;;4.72;1.15;;;18.10;99.90;;;;;;5091716;28;20062;-63
2023/05/17 09:08:33;;;;;;;10.15;1.80;;;18.10;99.90;;;;;;5091901;28;20050;-63
2023/05/17 09:11:37;;;;;;;5.13;1.30;;;18.20;99.90;;;;;;5091723;28;20070;-63
2023/05/17 09:14:41;;;;;;;7.35;1.85;;;18.30;99.90;;;;;;5091597;28;20047;-63
2023/05/17 09:17:52;;;;;;;8.75;1.52;;;18.30;99.90;;;;;;5091486;28;20043;-63
2023/05/17 09:21:06;;;;;;;9.52;1.42;;;18.30;99.90;;;;;;5091917;28;20043;-63
2023/05/17 09:24:10;;;;;;;8.05;1.70;;;18.40;99.90;;;;;;5091620;28;20047;-63
2023/05/17 09:27:16;;;;;;;8.75;1.45;;;18.40;99.90;;;;;;5091458;28;20039;-63
2023/05/17 09:30:30;;;;;;;11.65;1.60;;;18.40;99.90;;;;;;5091575;28;20043;-64
2023/05/17 09:33:45;;;;;;;11.02;1.58;;;18.40;99.90;;;;;;5091425;28;20047;-63
2023/05/17 09:36:50;;;;;;;7.32;1.33;;;18.40;99.90;;;;;;5091448;28;20047;-63
2023/05/17 09:39:54;;;;;;;10.55;1.52;;;18.40;99.90;;;;;;5091063;28;20051;-63
2023/05/17 09:42:59;;;;;;;11.45;2.65;;;18.40;99.90;;;;;;5091202;28;20039;-62
2023/05/17 09:46:03;;;;;;;12.30;1.45;;;18.40;99.90;;;;;;5091105;28;20042;-63
2023/05/17 09:49:08;;;;;;;5.63;1.25;;;18.40;99.90;;;;;;5091505;28;20498;-62
2023/05/17 09:52:18;;;;;;;10.73;1.55;;;18.30;99.90;;;;;;5091137;28;20055;-63
2023/05/17 09:55:26;;;;;;;12.55;1.52;;;18.40;99.90;;;;;;5091200;28;20404;-63
2023/05/17 09:58:36;;;;;;;8.93;1.63;;;18.50;99.90;;;;;;5091086;28;20420;-63
2023/05/17 10:01:42;;;;;;;14.90;2.17;;;18.60;99.90;;;;;;5091013;28;20400;-63
2023/05/17 10:04:52;;;;;;;10.75;1.40;;;18.60;99.90;;;;;;5091145;28;20516;-63
2023/05/17 10:07:57;;;;;;;6.35;1.10;;;18.50;99.90;;;;;;5090712;28;20508;-62
2023/05/17 10:11:07;;;;;;;5.43;1.23;;;18.40;99.90;;;;;;5090918;28;20047;-64
2023/05/17 10:14:22;;;;;;;4.85;0.77;;;18.40;99.90;;;;;;5090709;28;20043;-63
2023/05/17 10:17:28;;;;;;;10.55;1.67;;;18.30;99.90;;;;;;5091842;28;20043;-64
2023/05/17 10:20:33;;;;;;;5.07;0.95;;;18.30;99.90;;;;;;5091331;28;20043;-65
2023/05/17 10:23:46;;;;;;;10.00;0.85;;;18.30;99.90;;;;;;5091199;28;20055;-64
2023/05/17 10:26:50;;;;;;;6.18;0.95;;;18.30;99.90;;;;;;5091424;28;20039;-63
2023/05/17 10:29:56;;;;;;;6.50;1.08;;;18.40;99.90;;;;;;5091490;28;20055;-65
2023/05/17 10:33:01;;;;;;;5.57;1.30;;;18.50;99.90;;;;;;5090930;28;20051;-64
2023/05/17 10:36:07;;;;;;;7.70;1.27;;;18.60;99.90;;;;;;5091256;28;20039;-63
2023/05/17 10:39:11;;;;;;;5.63;1.17;;;18.60;99.90;;;;;;5090802;28;20043;-64
2023/05/17 10:42:18;;;;;;;7.78;1.20;;;18.70;99.90;;;;;;5091159;28;20392;-63
2023/05/17 10:45:24;;;;;;;16.30;4.13;;;18.70;99.90;;;;;;5090501;28;20043;-64
2023/05/17 10:48:29;;;;;;;9.65;3.33;;;18.90;99.90;;;;;;5089778;28;20486;-63
2023/05/17 10:51:36;;;;;;;5.38;1.58;;;19.00;99.90;;;;;;5090732;28;20047;-64
2023/05/17 10:54:42;;;;;;;9.18;1.60;;;19.20;99.90;;;;;;5090683;28;20051;-64
2023/05/17 10:58:09;;;;;;;17.02;1.90;;;19.20;99.90;;;;;;5089994;28;20044;-64
2023/05/17 11:01:53;;;;;;;5.25;1.30;;;19.10;99.90;;;;;;5090467;28;20044;-64
2023/05/17 11:04:59;;;;;;;5.25;1.17;;;18.90;99.90;;;;;;5090003;28;20039;-62
2023/05/17 11:08:17;;;;;;;6.15;1.30;;;18.70;99.90;;;;;;5090586;28;20076;-63
2023/05/17 11:11:21;;;;;;;5.88;1.33;;;18.60;99.90;;;;;;5090437;28;20043;-63
2023/05/17 11:14:25;;;;;;;8.27;1.73;;;18.50;99.90;;;;;;5090189;28;20039;-65
2023/05/17 11:17:42;;;;;;;12.25;1.90;;;18.50;99.90;;;;;;5092952;28;20047;-64
2023/05/17 11:21:06;;;;;;;8.18;2.10;;;18.40;99.90;;;;;;5094307;28;20059;-66
2023/05/17 11:24:14;;;;;;;11.07;2.85;;;18.40;99.90;;;;;;5094146;28;20043;-66
2023/05/17 11:27:19;;;;;;;12.80;1.60;;;18.30;99.90;;;;;;5092169;28;20079;-64
2023/05/17 11:30:33;;;;;;;8.68;2.20;;;18.30;99.90;;;;;;5093844;28;20039;-65
2023/05/17 11:33:41;;;;;;;9.90;2.05;;;18.40;99.90;;;;;;5093700;28;20060;-65
2023/05/17 11:36:50;;;;;;;6.43;2.22;;;18.40;99.90;;;;;;5091785;28;20063;-64
2023/05/17 11:40:06;;;;;;;5.40;1.52;;;18.60;99.90;;;;;;5091939;28;20050;-65
2023/05/17 11:43:22;;;;;;;9.43;2.10;;;18.60;99.90;;;;;;5092817;28;20043;-64
2023/05/17 11:46:26;;;;;;;10.73;2.53;;;18.70;99.90;;;;;;5093174;28;20399;-64
2023/05/17 11:49:32;;;;;;;12.07;2.25;;;18.90;99.90;;;;;;5093559;28;20043;-64
2023/05/17 11:52:38;;;;;;;8.05;2.03;;;19.00;99.90;;;;;;5092668;28;20059;-64
2023/05/17 11:55:46;;;;;;;11.52;2.08;;;19.00;99.90;;;;;;5093612;28;20043;-64
2023/05/17 11:58:51;;;;;;;11.40;1.95;;;19.00;99.90;;;;;;5093073;28;20051;-64
2023/05/17 12:01:55;;;;;;;11.30;2.30;;;19.00;99.90;;;;;;5092549;28;20042;-63
2023/05/17 12:04:59;;;;;;;12.68;2.17;;;19.00;99.90;;;;;;5091483;28;20051;-64
2023/05/17 12:08:03;;;;;;;10.38;2.20;;;19.00;99.90;;;;;;5093106;28;20043;-64
2023/05/17 12:11:11;;;;;;;8.35;2.22;;;18.90;99.90;;;;;;5093128;28;20035;-65
2023/05/17 12:14:16;;;;;;;9.77;2.33;;;19.00;99.90;;;;;;5092130;28;20054;-65
2023/05/17 12:17:29;;;;;;;11.45;2.70;;;19.10;99.90;;;;;;5093105;28;20063;-65
2023/05/17 12:20:34;;;;;;;8.95;2.05;;;19.20;99.90;;;;;;5093203;28;20403;-67
2023/05/17 12:23:42;;;;;;;10.05;2.78;;;19.20;99.90;;;;;;5091563;28;20039;-65
2023/05/17 12:26:47;;;;;;;14.45;2.35;;;19.30;99.90;;;;;;5091927;28;20039;-65
2023/05/17 12:29:52;;;;;;;11.18;2.60;;;19.30;99.90;;;;;;5092617;28;20054;-65
2023/05/17 12:32:56;;;;;;;6.82;2.25;;;19.30;99.90;;;;;;5092593;28;20130;-65
2023/05/17 12:36:02;;;;;;;12.50;3.17;;;19.30;99.90;;;;;;5092868;28;20043;-66
2023/05/17 12:39:08;;;;;;;10.57;2.88;;;19.40;99.90;;;;;;5092850;28;20047;-65
2023/05/17 12:42:13;;;;;;;14.90;3.10;;;19.50;99.90;;;;;;5092658;28;20047;-65
2023/05/17 12:45:17;;;;;;;17.75;3.95;;;19.50;99.90;;;;;;5092171;28;20047;-65
2023/05/17 12:48:25;;;;;;;15.77;4.03;;;19.50;99.90;;;;;;5092299;28;20047;-65
2023/05/17 12:51:38;;;;;;;24.55;4.70;;;19.50;99.90;;;;;;5091662;28;20399;-65
2023/05/17 12:54:42;;;;;;;15.35;3.83;;;19.50;99.90;;;;;;5092476;28;20051;-65
2023/05/17 12:57:53;;;;;;;16.30;4.10;;;19.50;99.90;;;;;;5092455;28;20043;-64
2023/05/17 13:01:02;;;;;;;26.75;5.20;;;19.50;99.90;;;;;;5092410;28;20395;-64
2023/05/17 13:04:06;;;;;;;24.92;5.57;;;19.40;99.90;;;;;;5091992;28;20399;-63
2023/05/17 13:07:10;;;;;;;22.77;4.88;;;19.30;99.90;;;;;;5092032;28;20051;-64
2023/05/17 13:10:21;;;;;;;20.15;4.93;;;19.20;99.90;;;;;;5091746;28;20499;-64
2023/05/17 13:13:31;;;;;;;35.72;5.35;;;19.20;99.90;;;;;;5091658;28;20047;-63
2023/05/17 13:16:39;;;;;;;20.13;6.05;;;19.20;99.90;;;;;;5092115;28;20047;-63
2023/05/17 13:19:43;;;;;;;21.88;5.90;;;19.10;99.90;;;;;;5090776;28;20402;-63
2023/05/17 13:22:48;;;;;;;23.05;5.63;;;19.10;99.90;;;;;;5091739;28;20051;-64
2023/05/17 13:25:52;;;;;;;25.85;6.18;;;19.10;99.90;;;;;;5091654;28;20055;-64
2023/05/17 13:28:56;;;;;;;33.05;6.47;;;19.10;99.90;;;;;;5091201;28;20506;-63
2023/05/17 13:32:00;;;;;;;24.48;5.45;;;19.10;99.90;;;;;;5091508;28;20055;-64
2023/05/17 13:35:04;;;;;;;39.33;6.65;;;19.10;99.90;;;;;;5091439;28;20495;-64
2023/05/17 13:38:08;;;;;;;23.67;6.07;;;19.10;99.90;;;;;;5091196;28;20039;-64
2023/05/17 13:41:12;;;;;;;26.60;5.93;;;19.00;99.90;;;;;;5091438;28;20073;-64
2023/05/17 13:44:16;;;;;;;31.08;6.45;;;19.00;99.90;;;;;;5091179;28;20042;-64
2023/05/17 13:47:21;;;;;;;26.52;6.32;;;18.90;99.90;;;;;;5090996;28;20047;-64
2023/05/17 13:50:25;;;;;;;21.88;5.95;;;18.80;99.90;;;;;;5091189;28;20043;-64
2023/05/17 13:53:29;;;;;;;21.05;6.03;;;18.80;99.90;;;;;;5090932;28;20507;-64
2023/05/17 13:56:33;;;;;;;31.33;6.97;;;18.80;99.90;;;;;;5090855;28;20043;-63
2023/05/17 13:59:38;;;;;;;36.88;7.20;;;18.90;99.90;;;;;;5091070;28;20066;-64
2023/05/17 14:02:42;;;;;;;21.17;6.35;;;18.90;99.90;;;;;;5091073;28;20047;-64
2023/05/17 14:05:49;;;;;;;18.90;5.70;;;18.90;99.90;;;;;;5091171;28;20153;-64
2023/05/17 14:08:53;;;;;;;33.47;6.38;;;19.00;99.90;;;;;;5090649;28;20047;-64
2023/05/17 14:11:57;;;;;;;29.33;5.60;;;19.00;99.90;;;;;;5090796;28;20059;-64
2023/05/17 14:15:02;;;;;;;20.83;5.72;;;19.00;99.90;;;;;;5090777;28;20047;-64
2023/05/17 14:18:06;;;;;;;26.52;6.28;;;19.00;99.90;;;;;;5090900;28;20052;-64
2023/05/17 14:21:10;;;;;;;31.65;6.10;;;19.00;99.90;;;;;;5090897;28;20503;-64
2023/05/17 14:24:15;;;;;;;28.38;6.90;;;19.00;99.90;;;;;;5090918;28;20051;-64
2023/05/17 14:27:19;;;;;;;21.65;6.85;;;19.00;99.90;;;;;;5090550;28;20079;-64
2023/05/17 14:30:24;;;;;;;22.20;6.25;;;18.90;99.90;;;;;;5090357;28;20047;-62
2023/05/17 14:33:28;;;;;;;27.42;5.88;;;18.90;99.90;;;;;;5089978;28;20047;-63
2023/05/17 14:36:35;;;;;;;24.35;6.28;;;18.90;99.90;;;;;;5090541;28;20039;-63
2023/05/17 14:39:38;;;;;;;23.90;6.97;;;18.90;99.90;;;;;;5090498;28;20062;-63
2023/05/17 14:42:42;;;;;;;24.00;6.70;;;18.80;99.90;;;;;;5090346;28;20534;-63
2023/05/17 14:45:46;;;;;;;33.47;6.85;;;18.80;99.90;;;;;;5090809;28;20054;-63
2023/05/17 14:48:51;;;;;;;27.73;6.03;;;18.90;99.90;;;;;;5090480;28;20054;-63
2023/05/17 14:51:55;;;;;;;28.75;6.10;;;18.80;99.90;;;;;;5093858;28;20062;-63
2023/05/17 14:54:58;;;;;;;25.52;6.00;;;18.80;99.90;;;;;;5094235;28;20114;-63
2023/05/17 14:58:02;;;;;;;26.63;6.78;;;18.80;99.90;;;;;;5094270;28;20039;-63
2023/05/17 15:01:07;;;;;;;25.75;5.47;;;18.80;99.90;;;;;;5093498;28;20043;-62
2023/05/17 15:04:11;;;;;;;26.02;5.90;;;18.70;99.90;;;;;;5092456;28;20055;-63
2023/05/17 15:07:16;;;;;;;21.23;5.68;;;18.70;99.90;;;;;;5093914;28;20043;-62
2023/05/17 15:10:20;;;;;;;22.63;5.45;;;18.70;99.90;;;;;;5093376;28;20529;-64
2023/05/17 15:13:24;;;;;;;36.20;6.65;;;18.70;99.90;;;;;;5093851;28;20059;-63
2023/05/17 15:16:28;;;;;;;31.83;7.05;;;18.70;99.90;;;;;;5094221;28;20046;-63
2023/05/17 15:19:32;;;;;;;24.33;6.13;;;18.80;99.90;;;;;;5093940;28;20054;-63
2023/05/17 15:22:36;;;;;;;25.48;5.72;;;18.80;99.90;;;;;;5093779;28;20043;-63
2023/05/17 15:25:40;;;;;;;25.65;5.70;;;18.80;99.90;;;;;;5093101;28;20055;-62
2023/05/17 15:28:44;;;;;;;28.38;5.80;;;18.90;99.90;;;;;;5093392;28;20059;-63
2023/05/17 15:31:48;;;;;;;21.77;5.75;;;18.90;99.90;;;;;;5092757;28;20047;-63
2023/05/17 15:34:52;;;;;;;26.15;6.35;;;19.00;99.90;;;;;;5093604;28;20047;-63
2023/05/17 15:37:58;;;;;;;22.00;5.53;;;19.00;99.90;;;;;;5093748;28;20063;-64
2023/05/17 15:41:04;;;;;;;27.13;6.35;;;19.00;99.90;;;;;;5093700;28;20055;-64
2023/05/17 15:44:08;;;;;;;28.67;6.55;;;19.00;99.90;;;;;;5092620;28;20043;-64
2023/05/17 15:47:12;;;;;;;29.70;6.55;;;19.00;99.90;;;;;;5093520;28;20043;-64
2023/05/17 15:50:16;;;;;;;18.73;6.10;;;19.00;99.90;;;;;;5093483;28;20059;-65
2023/05/17 15:53:19;;;;;;;21.42;6.38;;;19.00;99.90;;;;;;5092469;28;20145;-63
2023/05/17 15:56:24;;;;;;;29.30;6.40;;;19.00;99.90;;;;;;5093268;28;20047;-63
2023/05/17 15:59:28;;;;;;;23.88;5.60;;;19.00;99.90;;;;;;5093101;28;20055;-62